createdAt,value
2023-02-26T00:00:21.308Z,0.66
2023-02-26T00:01:26.837Z,0.66
2023-02-26T00:02:29.139Z,0.58
2023-02-26T00:03:31.412Z,0.66
2023-02-26T00:04:33.810Z,0.63
2023-02-26T00:05:36.265Z,0.60
2023-02-26T00:06:52.347Z,0.63
2023-02-26T00:07:55.436Z,0.60
2023-02-26T00:08:57.649Z,0.58
2023-02-26T00:10:01.934Z,0.56
2023-02-26T00:11:07.983Z,0.62
2023-02-26T00:12:12.423Z,0.63
2023-02-26T00:13:14.865Z,0.65
2023-02-26T00:14:17.906Z,0.64
2023-02-26T00:15:20.467Z,0.66
2023-02-26T00:16:22.726Z,0.64
2023-02-26T00:17:30.763Z,0.60
2023-02-26T00:18:33.257Z,0.52
2023-02-26T00:19:35.668Z,0.49
2023-02-26T00:20:38.271Z,0.54
2023-02-26T00:21:40.823Z,0.52
2023-02-26T00:22:43.530Z,0.48
2023-02-26T00:23:46.477Z,0.50
2023-02-26T00:24:48.683Z,0.44
2023-02-26T00:25:50.922Z,0.56
2023-02-26T00:26:53.712Z,0.51
2023-02-26T00:27:56.404Z,0.52
2023-02-26T00:28:59.169Z,0.55
2023-02-26T00:30:02.275Z,0.49
2023-02-26T00:31:05.670Z,0.58
2023-02-26T00:32:08.468Z,0.58
2023-02-26T00:33:10.970Z,0.57
2023-02-26T00:34:13.690Z,0.48
2023-02-26T00:35:18.402Z,0.49
2023-02-26T00:36:24.796Z,0.45
2023-02-26T00:37:52.132Z,0.43
2023-02-26T00:39:05.218Z,0.28
2023-02-26T00:40:46.218Z,0.33
2023-02-26T00:41:48.781Z,0.34
2023-02-26T00:42:51.322Z,0.31
2023-02-26T00:43:53.778Z,0.36
2023-02-26T00:44:56.355Z,0.43
2023-02-26T00:46:16.646Z,0.35
2023-02-26T00:47:24.890Z,0.38
2023-02-26T00:48:45.885Z,0.36
2023-02-26T00:49:50.731Z,0.35
2023-02-26T00:51:20.485Z,0.39
2023-02-26T00:52:46.170Z,0.39
2023-02-26T00:54:09.265Z,0.34
2023-02-26T00:55:11.544Z,0.35
2023-02-26T00:56:15.034Z,0.26
2023-02-26T00:57:17.358Z,0.29
2023-02-26T00:58:19.868Z,0.29
2023-02-26T00:59:22.597Z,0.27
2023-02-26T01:00:25.198Z,0.28
2023-02-26T01:01:27.475Z,0.27
2023-02-26T01:02:29.988Z,0.25
2023-02-26T01:03:33.142Z,0.29
2023-02-26T01:04:36.291Z,0.28
2023-02-26T01:05:38.908Z,0.24
2023-02-26T01:06:51.199Z,0.21
2023-02-26T01:08:20.943Z,0.19
2023-02-26T01:09:37.425Z,0.15
2023-02-26T01:10:41.155Z,0.15
2023-02-26T01:11:43.451Z,0.18
2023-02-26T01:12:46.027Z,0.11
2023-02-26T01:13:48.540Z,0.14
2023-02-26T01:14:52.217Z,0.13
2023-02-26T01:16:02.130Z,0.12
2023-02-26T01:17:19.335Z,0.09
2023-02-26T01:18:44.213Z,0.15
2023-02-26T01:19:52.385Z,0.06
2023-02-26T01:21:00.322Z,0.05
2023-02-26T01:22:30.323Z,0.07
2023-02-26T01:23:38.603Z,-0.04
2023-02-26T01:24:41.648Z,-0.07
2023-02-26T01:25:50.159Z,-0.11
2023-02-26T01:26:52.761Z,-0.12
2023-02-26T01:27:57.506Z,-0.15
2023-02-26T01:29:00.033Z,-0.22
2023-02-26T01:30:04.476Z,-0.20
2023-02-26T01:31:26.382Z,-0.17
2023-02-26T01:32:46.346Z,-0.27
2023-02-26T01:34:21.887Z,-0.49
2023-02-26T01:35:39.248Z,-0.49
2023-02-26T01:36:49.196Z,-0.47
2023-02-26T01:38:02.422Z,-0.55
2023-02-26T01:39:14.139Z,-0.55
2023-02-26T01:40:16.779Z,-0.69
2023-02-26T01:41:33.847Z,-0.74
2023-02-26T01:42:43.524Z,-0.88
2023-02-26T01:43:54.396Z,-0.81
2023-02-26T01:45:16.666Z,-0.73
2023-02-26T01:46:35.827Z,-0.70
2023-02-26T01:47:45.537Z,-0.68
2023-02-26T01:48:53.872Z,-0.64
2023-02-26T01:49:56.581Z,-0.59
2023-02-26T01:50:58.769Z,-0.62
2023-02-26T01:52:05.032Z,-0.60
2023-02-26T01:53:24.742Z,-0.78
2023-02-26T01:54:30.961Z,-0.93
2023-02-26T01:55:33.376Z,-1.00
2023-02-26T01:56:36.522Z,-0.93
2023-02-26T01:57:39.046Z,-0.96
2023-02-26T01:58:41.819Z,-0.96
2023-02-26T01:59:48.414Z,-0.91
